createdAt,value
2019-03-25T00:01:17.854Z,95180.66
2019-03-25T00:03:46.202Z,95194.48
2019-03-25T00:06:14.421Z,95175.93
2019-03-25T00:08:42.414Z,95178.98
2019-03-25T00:11:10.565Z,95178.30
2019-03-25T00:13:38.639Z,95180.05
2019-03-25T00:16:06.850Z,95175.48
2019-03-25T00:18:34.830Z,95170.73
2019-03-25T00:21:02.883Z,95167.34
2019-03-25T00:23:30.865Z,95175.48
2019-03-25T00:25:58.822Z,95167.28
2019-03-25T00:28:26.880Z,95160.59
2019-03-25T00:30:55.059Z,95155.05
2019-03-25T00:33:23.148Z,95152.73
2019-03-25T00:35:51.074Z,95155.06
2019-03-25T00:38:19.069Z,95156.25
2019-03-25T00:40:47.080Z,95158.92
2019-03-25T00:43:15.065Z,95149.51
2019-03-25T00:45:43.062Z,95145.34
2019-03-25T00:48:10.985Z,95146.74
2019-03-25T00:50:38.977Z,95143.82
2019-03-25T00:53:07.026Z,95140.47
2019-03-25T00:55:35.014Z,95136.19
2019-03-25T00:58:03.054Z,95129.98
2019-03-25T01:00:30.993Z,95128.28
2019-03-25T01:02:58.990Z,95128.48
2019-03-25T01:05:26.992Z,95124.16
2019-03-25T01:07:54.987Z,95121.80
2019-03-25T01:10:23.090Z,95129.45
2019-03-25T01:12:51.118Z,95115.77
2019-03-25T01:15:19.107Z,95126.06
2019-03-25T01:17:47.113Z,95123.44
2019-03-25T01:20:15.311Z,95123.71
2019-03-25T01:22:43.421Z,95124.99
2019-03-25T01:25:11.325Z,95123.52
2019-03-25T01:27:39.309Z,95112.65
2019-03-25T01:30:07.707Z,95113.84
2019-03-25T01:32:35.752Z,95114.70
2019-03-25T01:35:03.994Z,95122.08
2019-03-25T01:37:31.991Z,95116.08
2019-03-25T01:39:59.956Z,95119.70
2019-03-25T01:42:28.014Z,95127.63
2019-03-25T01:44:56.046Z,95114.66
2019-03-25T01:47:24.014Z,95116.00
2019-03-25T01:49:52.047Z,95118.25
2019-03-25T01:52:20.101Z,95120.69
2019-03-25T01:54:48.081Z,95118.92
2019-03-25T01:57:16.086Z,95111.23
2019-03-25T01:59:44.078Z,95107.28
2019-03-25T02:02:12.095Z,95105.34
2019-03-25T02:04:40.134Z,95118.00
2019-03-25T02:07:08.151Z,95097.73
2019-03-25T02:09:36.102Z,95096.91
2019-03-25T02:12:04.227Z,95090.64
2019-03-25T02:14:32.264Z,95090.24
2019-03-25T02:17:00.265Z,95083.34
2019-03-25T02:19:28.176Z,95079.31
2019-03-25T02:21:56.166Z,95075.81
2019-03-25T02:24:24.148Z,95081.84
2019-03-25T02:26:52.079Z,95077.30
2019-03-25T02:29:20.081Z,95075.30
2019-03-25T02:31:48.110Z,95070.28
2019-03-25T02:34:16.201Z,95070.80
2019-03-25T02:36:44.213Z,95061.73
2019-03-25T02:39:12.153Z,95063.69
2019-03-25T02:41:40.132Z,95062.61
2019-03-25T02:44:08.157Z,95064.69
2019-03-25T02:46:36.187Z,95065.72
2019-03-25T02:49:04.318Z,95060.02
2019-03-25T02:51:32.291Z,95054.66
2019-03-25T02:54:00.269Z,95054.47
2019-03-25T02:56:28.285Z,95049.05
2019-03-25T02:58:56.282Z,95047.03
2019-03-25T03:01:24.252Z,95048.95
2019-03-25T03:03:52.262Z,95043.55
2019-03-25T03:06:20.248Z,95042.22
2019-03-25T03:08:48.189Z,95042.84
2019-03-25T03:11:16.172Z,95040.41
2019-03-25T03:13:44.181Z,95040.73
2019-03-25T03:16:12.250Z,95035.36
2019-03-25T03:18:40.265Z,95024.97
2019-03-25T03:21:08.227Z,95030.44
2019-03-25T03:23:36.254Z,95030.70
2019-03-25T03:26:04.479Z,95035.72
2019-03-25T03:28:32.477Z,95036.49
2019-03-25T03:31:00.595Z,95038.06
2019-03-25T03:33:28.538Z,95029.50
2019-03-25T03:35:56.737Z,95034.11
2019-03-25T03:38:24.805Z,95026.13
2019-03-25T03:40:52.838Z,95029.48
2019-03-25T03:43:21.073Z,95028.82
2019-03-25T03:45:49.093Z,95036.20
2019-03-25T03:48:17.063Z,95043.77
2019-03-25T03:50:45.137Z,95031.33
2019-03-25T03:53:13.259Z,95025.88
2019-03-25T03:55:41.280Z,95028.25
2019-03-25T03:58:09.302Z,95026.06
2019-03-25T04:00:37.384Z,95026.38
2019-03-25T04:03:05.515Z,95032.31
2019-03-25T04:05:33.562Z,95033.67
2019-03-25T04:08:03.662Z,95027.68
2019-03-25T04:10:40.484Z,95036.55
2019-03-25T04:13:08.662Z,95027.61
2019-03-25T04:15:36.722Z,95027.80
2019-03-25T04:18:04.797Z,95019.73
2019-03-25T04:20:32.879Z,95013.55
2019-03-25T04:23:01.076Z,95016.05
2019-03-25T04:25:29.130Z,95025.77
2019-03-25T04:27:57.228Z,95014.14
2019-03-25T04:30:25.478Z,95011.75
2019-03-25T04:32:53.544Z,95014.06
2019-03-25T04:35:23.869Z,95013.25
2019-03-25T04:37:51.793Z,95013.90
2019-03-25T04:40:19.934Z,95012.91
2019-03-25T04:42:48.071Z,95018.91
2019-03-25T04:45:16.475Z,95010.44
2019-03-25T04:47:44.658Z,95003.53
2019-03-25T04:50:12.919Z,95007.29
2019-03-25T04:52:41.011Z,95003.35
2019-03-25T04:55:09.594Z,95008.11
2019-03-25T04:57:37.903Z,95003.14
2019-03-25T05:00:07.575Z,95000.52
2019-03-25T05:02:35.596Z,95013.56
2019-03-25T05:05:03.855Z,95010.69
2019-03-25T05:07:33.173Z,95008.34
2019-03-25T05:10:01.238Z,95007.33
2019-03-25T05:12:29.426Z,95006.84
2019-03-25T05:14:57.491Z,95007.33
2019-03-25T05:17:25.530Z,95004.17
2019-03-25T05:19:53.592Z,95017.75
2019-03-25T05:22:21.668Z,95006.16
2019-03-25T05:24:49.769Z,95003.41
2019-03-25T05:27:19.602Z,95004.73
2019-03-25T05:29:48.294Z,94995.16
2019-03-25T05:32:16.470Z,94995.35
2019-03-25T05:34:44.596Z,94993.81
2019-03-25T05:37:12.749Z,95000.85
2019-03-25T05:39:40.852Z,94997.28
2019-03-25T05:42:09.656Z,95010.14
2019-03-25T05:44:37.761Z,95002.52
2019-03-25T05:47:05.935Z,94998.79
2019-03-25T05:49:33.992Z,94994.84
2019-03-25T05:52:01.921Z,94993.65
2019-03-25T05:54:29.991Z,94989.95
2019-03-25T05:57:02.878Z,94984.02
2019-03-25T05:59:27.997Z,94978.32
2019-03-25T06:01:56.019Z,94986.13
2019-03-25T06:04:24.073Z,94979.52
2019-03-25T06:06:52.306Z,94982.73
2019-03-25T06:09:20.464Z,94984.07
2019-03-25T06:11:48.493Z,94981.17
2019-03-25T06:14:16.570Z,94974.54
2019-03-25T06:16:44.616Z,94979.83
2019-03-25T06:19:12.820Z,94982.62
2019-03-25T06:21:40.819Z,94977.29
2019-03-25T06:24:08.881Z,94973.14
2019-03-25T06:26:36.920Z,94964.87
2019-03-25T06:29:05.021Z,94968.90
2019-03-25T06:31:33.010Z,94970.39
2019-03-25T06:34:01.031Z,94961.63
2019-03-25T06:36:29.063Z,94958.36
2019-03-25T06:38:57.158Z,94954.70
2019-03-25T06:41:25.453Z,94957.70
2019-03-25T06:43:54.601Z,94952.19
2019-03-25T06:46:22.653Z,94950.78
2019-03-25T06:48:50.811Z,94943.67
2019-03-25T06:51:19.002Z,94933.61
2019-03-25T06:53:52.441Z,94939.44
2019-03-25T06:56:20.565Z,94947.61
2019-03-25T06:58:48.648Z,94945.48
2019-03-25T07:01:16.690Z,94946.28
2019-03-25T07:03:44.783Z,94943.41
2019-03-25T07:06:12.760Z,94944.64
2019-03-25T07:08:40.929Z,94944.50
2019-03-25T07:11:09.859Z,94947.78
2019-03-25T07:13:37.893Z,94949.41
2019-03-25T07:16:05.953Z,94947.58
2019-03-25T07:18:33.964Z,94950.01
2019-03-25T07:21:02.033Z,94950.59
2019-03-25T07:23:30.181Z,94944.45
2019-03-25T07:25:58.269Z,94935.22
2019-03-25T07:28:26.324Z,94948.31
2019-03-25T07:30:54.368Z,94947.44
2019-03-25T07:33:22.742Z,94945.63
2019-03-25T07:35:50.733Z,94942.46
2019-03-25T07:38:18.831Z,94930.59
2019-03-25T07:40:46.966Z,94943.38
2019-03-25T07:43:15.186Z,94933.58
2019-03-25T07:45:44.388Z,94933.84
2019-03-25T07:48:12.456Z,94935.41
2019-03-25T07:50:40.477Z,94923.33
2019-03-25T07:53:08.586Z,94932.08
2019-03-25T07:55:36.697Z,94923.80
2019-03-25T07:58:04.819Z,94916.36
2019-03-25T08:00:34.371Z,94913.44
2019-03-25T08:03:02.648Z,94908.59
2019-03-25T08:05:30.697Z,94898.46
2019-03-25T08:07:59.217Z,94907.95
2019-03-25T08:10:32.545Z,94897.11
2019-03-25T08:13:00.708Z,94891.29
2019-03-25T08:15:28.939Z,94892.83
2019-03-25T08:17:56.955Z,94885.94
2019-03-25T08:20:24.892Z,94885.20
2019-03-25T08:22:52.952Z,94873.78
2019-03-25T08:25:20.976Z,94869.30
2019-03-25T08:27:59.381Z,94865.72
2019-03-25T08:30:19.128Z,94861.73
2019-03-25T08:32:47.333Z,94861.17
2019-03-25T08:35:15.396Z,94856.25
2019-03-25T08:37:43.457Z,94850.97
2019-03-25T08:40:11.872Z,94846.70
2019-03-25T08:42:40.166Z,94847.40
2019-03-25T08:45:08.957Z,94837.76
2019-03-25T08:47:36.962Z,94828.64
2019-03-25T08:50:08.896Z,94821.66
2019-03-25T08:52:36.961Z,94821.86
2019-03-25T08:55:05.247Z,94820.20
2019-03-25T08:57:33.357Z,94817.95
2019-03-25T09:00:01.512Z,94816.25
2019-03-25T09:02:29.543Z,94810.98
2019-03-25T09:04:57.501Z,94800.20
2019-03-25T09:07:25.518Z,94803.20
2019-03-25T09:09:53.534Z,94811.89
2019-03-25T09:12:21.582Z,94798.07
2019-03-25T09:14:49.681Z,94789.41
2019-03-25T09:17:17.732Z,94786.28
2019-03-25T09:19:45.657Z,94778.59
2019-03-25T09:22:13.797Z,94779.39
2019-03-25T09:24:41.885Z,94780.70
2019-03-25T09:27:10.059Z,94770.20
2019-03-25T09:29:38.158Z,94762.59
2019-03-25T09:32:06.370Z,94762.80
2019-03-25T09:34:34.579Z,94754.45
2019-03-25T09:37:02.673Z,94751.88
2019-03-25T09:39:30.762Z,94746.02
2019-03-25T09:41:59.295Z,94742.65
2019-03-25T09:44:27.425Z,94732.63
2019-03-25T09:46:55.781Z,94726.13
2019-03-25T09:49:23.931Z,94718.78
2019-03-25T09:51:52.977Z,94715.34
2019-03-25T09:54:21.350Z,94705.69
2019-03-25T09:56:49.424Z,94696.61
2019-03-25T09:59:17.448Z,94697.22
2019-03-25T10:01:45.896Z,94689.50
2019-03-25T10:04:13.941Z,94682.45
2019-03-25T10:06:44.099Z,94686.67
2019-03-25T10:09:12.322Z,94690.50
2019-03-25T10:11:40.391Z,94677.31
2019-03-25T10:14:08.634Z,94670.67
2019-03-25T10:16:37.195Z,94670.73
2019-03-25T10:19:05.374Z,94659.93
2019-03-25T10:21:33.916Z,94658.52
2019-03-25T10:24:02.061Z,94648.73
2019-03-25T10:26:30.230Z,94645.58
2019-03-25T10:28:58.377Z,94641.69
2019-03-25T10:31:26.690Z,94634.92
2019-03-25T10:33:54.777Z,94630.16
2019-03-25T10:36:22.982Z,94624.91
2019-03-25T10:38:51.258Z,94621.50
2019-03-25T10:41:19.412Z,94624.13
2019-03-25T10:43:47.439Z,94620.57
2019-03-25T10:46:15.688Z,94611.63
2019-03-25T10:48:43.841Z,94604.58
2019-03-25T10:51:11.993Z,94595.38
2019-03-25T10:53:40.337Z,94594.88
2019-03-25T10:56:08.607Z,94588.84
2019-03-25T10:58:36.602Z,94586.44
2019-03-25T11:01:05.370Z,94581.36
2019-03-25T11:03:33.459Z,94578.90
2019-03-25T11:06:01.446Z,94575.09
2019-03-25T11:08:29.705Z,94574.23
2019-03-25T11:10:58.204Z,94565.34
2019-03-25T11:13:26.346Z,94551.02
2019-03-25T11:15:54.431Z,94538.93
2019-03-25T11:18:22.581Z,94538.43
2019-03-25T11:20:50.865Z,94532.23
2019-03-25T11:23:19.106Z,94528.51
2019-03-25T11:25:47.775Z,94520.13
2019-03-25T11:28:15.811Z,94523.80
2019-03-25T11:30:51.846Z,94513.28
2019-03-25T11:33:20.632Z,94502.80
2019-03-25T11:35:48.794Z,94495.30
2019-03-25T11:38:16.811Z,94496.23
2019-03-25T11:40:44.970Z,94488.61
2019-03-25T11:43:13.135Z,94486.45
2019-03-25T11:45:41.244Z,94490.69
2019-03-25T11:48:09.356Z,94474.39
2019-03-25T11:50:37.358Z,94474.39
2019-03-25T11:53:05.423Z,94465.19
2019-03-25T11:55:33.878Z,94463.59
2019-03-25T11:58:01.932Z,94455.77
2019-03-25T12:00:30.415Z,94448.23
2019-03-25T12:02:58.600Z,94442.06
2019-03-25T12:05:26.663Z,94436.59
2019-03-25T12:07:54.743Z,94435.44
2019-03-25T12:10:23.094Z,94438.59
2019-03-25T12:12:51.088Z,94431.77
2019-03-25T12:15:19.112Z,94427.33
2019-03-25T12:17:47.398Z,94426.34
2019-03-25T12:20:15.560Z,94424.31
2019-03-25T12:22:43.776Z,94413.33
2019-03-25T12:25:11.928Z,94407.95
2019-03-25T12:27:40.640Z,94400.27
2019-03-25T12:30:09.460Z,94401.55
2019-03-25T12:32:37.555Z,94388.55
2019-03-25T12:35:06.357Z,94387.89
2019-03-25T12:37:34.348Z,94379.17
2019-03-25T12:40:02.454Z,94380.64
2019-03-25T12:42:30.622Z,94374.65
2019-03-25T12:44:58.841Z,94364.38
2019-03-25T12:47:27.134Z,94367.89
2019-03-25T12:49:56.443Z,94364.88
2019-03-25T12:52:24.482Z,94360.07
2019-03-25T12:54:52.477Z,94353.63
2019-03-25T12:57:20.563Z,94350.58
2019-03-25T12:59:48.655Z,94351.88
2019-03-25T13:02:16.630Z,94348.73
2019-03-25T13:04:44.652Z,94342.22
2019-03-25T13:07:12.987Z,94347.95
2019-03-25T13:09:41.429Z,94351.91
2019-03-25T13:12:09.516Z,94344.74
2019-03-25T13:14:37.613Z,94342.69
2019-03-25T13:17:05.766Z,94331.38
2019-03-25T13:19:33.852Z,94337.48
2019-03-25T13:22:02.114Z,94325.19
2019-03-25T13:24:30.341Z,94329.39
2019-03-25T13:26:58.337Z,94329.56
2019-03-25T13:29:26.487Z,94324.14
2019-03-25T13:31:54.681Z,94322.05
2019-03-25T13:34:22.692Z,94310.20
2019-03-25T13:36:50.780Z,94301.45
2019-03-25T13:39:18.847Z,94301.52
2019-03-25T13:41:46.852Z,94295.55
2019-03-25T13:44:14.878Z,94293.18
2019-03-25T13:46:43.277Z,94290.76
2019-03-25T13:49:11.566Z,94292.91
2019-03-25T13:51:39.760Z,94289.13
2019-03-25T13:54:07.943Z,94287.05
2019-03-25T13:56:35.918Z,94281.05
2019-03-25T13:59:04.072Z,94272.19
2019-03-25T14:01:32.078Z,94272.94
2019-03-25T14:04:00.111Z,94278.04
2019-03-25T14:06:28.171Z,94271.84
2019-03-25T14:08:56.272Z,94264.39
2019-03-25T14:11:24.370Z,94259.67
2019-03-25T14:13:52.474Z,94266.10
2019-03-25T14:16:20.506Z,94260.47
2019-03-25T14:18:48.541Z,94256.87
2019-03-25T14:21:16.649Z,94256.67
2019-03-25T14:23:44.667Z,94250.77
2019-03-25T14:26:12.660Z,94247.73
2019-03-25T14:28:40.759Z,94242.16
2019-03-25T14:31:08.840Z,94246.50
2019-03-25T14:33:36.834Z,94247.39
2019-03-25T14:36:05.035Z,94237.73
2019-03-25T14:38:33.204Z,94245.83
2019-03-25T14:41:01.284Z,94242.50
2019-03-25T14:43:29.329Z,94237.61
2019-03-25T14:45:57.400Z,94237.47
2019-03-25T14:48:25.408Z,94240.46
2019-03-25T14:50:53.552Z,94235.59
2019-03-25T14:53:21.623Z,94244.45
2019-03-25T14:55:49.682Z,94239.49
2019-03-25T14:58:17.754Z,94240.05
2019-03-25T15:00:45.830Z,94230.74
2019-03-25T15:03:13.842Z,94228.20
2019-03-25T15:05:41.879Z,94234.69
2019-03-25T15:08:09.943Z,94234.94
2019-03-25T15:10:37.946Z,94237.23
2019-03-25T15:13:06.051Z,94236.05
2019-03-25T15:15:34.145Z,94248.97
2019-03-25T15:18:02.366Z,94237.70
2019-03-25T15:20:30.445Z,94239.23
2019-03-25T15:22:58.495Z,94249.74
2019-03-25T15:25:27.114Z,94239.56
2019-03-25T15:27:55.188Z,94237.64
2019-03-25T15:30:23.234Z,94239.15
2019-03-25T15:32:51.266Z,94228.98
2019-03-25T15:35:19.358Z,94230.11
2019-03-25T15:37:47.426Z,94237.11
2019-03-25T15:40:16.050Z,94227.58
2019-03-25T15:42:44.113Z,94231.45
2019-03-25T15:45:12.300Z,94229.81
2019-03-25T15:47:43.786Z,94229.94
2019-03-25T15:50:11.413Z,94223.05
2019-03-25T15:52:39.597Z,94222.36
2019-03-25T15:55:09.089Z,94223.39
2019-03-25T15:57:39.556Z,94224.23
2019-03-25T16:00:12.372Z,94221.69
2019-03-25T16:02:40.638Z,94220.89
2019-03-25T16:05:08.811Z,94239.92
2019-03-25T16:07:36.848Z,94216.27
2019-03-25T16:10:05.618Z,94222.85
2019-03-25T16:12:33.717Z,94213.42
2019-03-25T16:15:01.931Z,94210.16
2019-03-25T16:17:29.987Z,94215.67
2019-03-25T16:19:58.039Z,94216.47
2019-03-25T16:22:26.092Z,94214.38
2019-03-25T16:24:54.161Z,94213.37
2019-03-25T16:27:22.274Z,94211.48
2019-03-25T16:29:50.330Z,94204.64
2019-03-25T16:32:18.401Z,94214.02
2019-03-25T16:34:46.748Z,94211.13
2019-03-25T16:37:14.716Z,94226.71
2019-03-25T16:39:42.719Z,94221.34
2019-03-25T16:42:16.896Z,94218.50
2019-03-25T16:44:45.034Z,94226.56
2019-03-25T16:47:14.475Z,94225.41
2019-03-25T16:49:42.528Z,94217.59
2019-03-25T16:52:10.559Z,94226.34
2019-03-25T16:54:40.525Z,94227.41
2019-03-25T16:57:08.612Z,94224.47
2019-03-25T16:59:36.733Z,94223.09
2019-03-25T17:02:04.831Z,94223.41
2019-03-25T17:04:32.904Z,94221.53
2019-03-25T17:07:00.900Z,94219.94
2019-03-25T17:09:28.906Z,94220.03
2019-03-25T17:11:57.035Z,94221.66
2019-03-25T17:14:25.590Z,94236.98
2019-03-25T17:16:53.634Z,94238.69
2019-03-25T17:19:21.658Z,94248.22
2019-03-25T17:21:57.615Z,94246.87
2019-03-25T17:24:19.615Z,94241.44
2019-03-25T17:26:47.720Z,94247.55
2019-03-25T17:29:15.756Z,94251.42
2019-03-25T17:31:43.827Z,94256.77
2019-03-25T17:34:11.900Z,94261.58
2019-03-25T17:36:40.031Z,94257.55
2019-03-25T17:39:09.357Z,94264.08
2019-03-25T17:41:37.464Z,94264.34
2019-03-25T17:44:05.486Z,94266.77
2019-03-25T17:46:33.636Z,94270.70
2019-03-25T17:49:01.668Z,94263.72
2019-03-25T17:51:29.680Z,94269.02
2019-03-25T17:53:57.866Z,94269.10
2019-03-25T17:56:26.025Z,94274.14
2019-03-25T17:58:54.499Z,94270.63
2019-03-25T18:01:32.550Z,94268.86
2019-03-25T18:03:59.599Z,94272.34
2019-03-25T18:06:27.734Z,94263.83
2019-03-25T18:08:56.706Z,94279.57
2019-03-25T18:11:24.803Z,94280.25
2019-03-25T18:13:53.828Z,94275.53
2019-03-25T18:16:22.255Z,94268.16
2019-03-25T18:18:50.404Z,94271.05
2019-03-25T18:21:18.605Z,94276.02
2019-03-25T18:23:46.641Z,94276.46
2019-03-25T18:26:15.220Z,94286.13
2019-03-25T18:28:43.391Z,94276.08
2019-03-25T18:31:11.433Z,94283.05
2019-03-25T18:33:39.455Z,94285.77
2019-03-25T18:36:07.564Z,94285.67
2019-03-25T18:38:35.635Z,94288.51
2019-03-25T18:41:03.669Z,94289.48
2019-03-25T18:43:31.722Z,94292.71
2019-03-25T18:45:59.856Z,94287.89
2019-03-25T18:48:28.584Z,94295.39
2019-03-25T18:50:56.589Z,94288.17
2019-03-25T18:53:24.927Z,94297.62
2019-03-25T18:55:53.383Z,94292.48
2019-03-25T18:58:21.581Z,94286.61
2019-03-25T19:00:49.657Z,94286.11
2019-03-25T19:03:18.559Z,94287.53
2019-03-25T19:05:47.123Z,94288.78
2019-03-25T19:08:15.357Z,94286.70
2019-03-25T19:10:45.335Z,94287.44
2019-03-25T19:13:13.334Z,94283.23
2019-03-25T19:15:41.556Z,94275.16
2019-03-25T19:18:10.034Z,94282.24
2019-03-25T19:20:38.314Z,94286.75
2019-03-25T19:23:06.649Z,94283.27
2019-03-25T19:25:37.191Z,94291.95
2019-03-25T19:28:05.630Z,94281.27
2019-03-25T19:30:34.032Z,94282.63
2019-03-25T19:33:02.093Z,94289.81
2019-03-25T19:35:30.405Z,94289.70
2019-03-25T19:37:58.580Z,94288.69
2019-03-25T19:40:26.811Z,94289.91
2019-03-25T19:42:54.959Z,94298.06
2019-03-25T19:45:23.459Z,94294.30
2019-03-25T19:47:52.354Z,94288.98
2019-03-25T19:50:20.877Z,94295.04
2019-03-25T19:52:49.240Z,94299.75
2019-03-25T19:55:17.235Z,94300.86
2019-03-25T19:57:45.433Z,94295.78
2019-03-25T20:00:13.915Z,94289.47
2019-03-25T20:02:41.987Z,94296.41
2019-03-25T20:05:10.258Z,94301.91
2019-03-25T20:07:38.827Z,94303.80
2019-03-25T20:10:09.260Z,94303.56
2019-03-25T20:12:38.426Z,94304.15
2019-03-25T20:15:07.070Z,94298.24
2019-03-25T20:17:35.379Z,94297.97
2019-03-25T20:20:04.209Z,94298.42
2019-03-25T20:22:32.496Z,94303.73
2019-03-25T20:25:01.227Z,94294.16
2019-03-25T20:27:29.412Z,94295.89
2019-03-25T20:29:58.248Z,94300.58
2019-03-25T20:32:31.633Z,94308.88
2019-03-25T20:34:56.454Z,94299.41
2019-03-25T20:37:24.896Z,94307.13
2019-03-25T20:39:52.887Z,94305.36
2019-03-25T20:42:21.022Z,94305.05
2019-03-25T20:44:49.074Z,94303.10
2019-03-25T20:47:17.376Z,94296.38
2019-03-25T20:49:45.478Z,94298.97
2019-03-25T20:52:13.530Z,94301.23
2019-03-25T20:54:41.951Z,94310.03
2019-03-25T20:57:10.014Z,94299.33
2019-03-25T20:59:39.740Z,94302.20
2019-03-25T21:02:07.943Z,94305.52
2019-03-25T21:04:36.148Z,94299.66
2019-03-25T21:07:05.210Z,94305.52
2019-03-25T21:09:33.295Z,94294.80
2019-03-25T21:12:01.392Z,94305.78
2019-03-25T21:14:29.721Z,94305.31
2019-03-25T21:16:57.980Z,94304.91
2019-03-25T21:19:26.139Z,94305.80
2019-03-25T21:21:54.288Z,94308.61
2019-03-25T21:24:22.370Z,94310.27
2019-03-25T21:26:50.891Z,94314.05
2019-03-25T21:29:18.925Z,94319.84
2019-03-25T21:31:47.013Z,94306.85
2019-03-25T21:34:15.016Z,94306.02
2019-03-25T21:36:43.132Z,94309.84
2019-03-25T21:39:11.279Z,94301.84
2019-03-25T21:41:39.404Z,94303.27
2019-03-25T21:44:07.732Z,94304.48
2019-03-25T21:46:35.798Z,94293.89
2019-03-25T21:49:04.040Z,94302.27
2019-03-25T21:51:32.239Z,94293.70
2019-03-25T21:54:00.295Z,94298.70
2019-03-25T21:56:28.551Z,94302.90
2019-03-25T21:58:56.588Z,94304.86
2019-03-25T22:01:24.957Z,94300.33
2019-03-25T22:03:53.195Z,94301.69
2019-03-25T22:06:21.385Z,94300.84
2019-03-25T22:08:49.509Z,94311.00
2019-03-25T22:11:17.533Z,94307.52
2019-03-25T22:13:45.515Z,94318.97
2019-03-25T22:16:13.703Z,94325.44
2019-03-25T22:18:41.912Z,94323.50
2019-03-25T22:21:09.940Z,94325.05
2019-03-25T22:23:38.014Z,94323.20
2019-03-25T22:26:05.938Z,94326.45
2019-03-25T22:28:33.946Z,94322.66
2019-03-25T22:31:01.976Z,94314.59
2019-03-25T22:33:30.038Z,94320.27
2019-03-25T22:35:57.978Z,94323.89
2019-03-25T22:38:26.014Z,94320.05
2019-03-25T22:40:54.016Z,94317.01
2019-03-25T22:43:21.966Z,94315.41
2019-03-25T22:45:49.977Z,94316.77
2019-03-25T22:48:18.082Z,94320.27
2019-03-25T22:50:46.178Z,94323.28
2019-03-25T22:53:14.125Z,94321.54
2019-03-25T22:55:42.172Z,94325.61
2019-03-25T22:58:10.193Z,94329.18
2019-03-25T23:00:43.875Z,94333.33
2019-03-25T23:03:12.047Z,94342.95
2019-03-25T23:05:40.172Z,94340.78
2019-03-25T23:08:08.173Z,94335.70
2019-03-25T23:10:36.267Z,94344.19
2019-03-25T23:13:04.333Z,94345.41
2019-03-25T23:15:32.464Z,94346.07
2019-03-25T23:18:00.547Z,94352.09
2019-03-25T23:20:28.771Z,94344.02
2019-03-25T23:22:56.871Z,94348.34
2019-03-25T23:25:24.956Z,94347.06
2019-03-25T23:27:55.497Z,94350.39
2019-03-25T23:30:23.728Z,94352.18
2019-03-25T23:32:51.707Z,94336.92
2019-03-25T23:35:19.754Z,94346.11
2019-03-25T23:37:48.155Z,94347.67
2019-03-25T23:40:16.220Z,94342.09
2019-03-25T23:42:44.359Z,94348.06
2019-03-25T23:45:12.739Z,94340.06
2019-03-25T23:47:40.760Z,94336.47
2019-03-25T23:50:09.011Z,94344.49
2019-03-25T23:52:37.049Z,94349.55
2019-03-25T23:55:06.058Z,94354.81
2019-03-25T23:57:34.135Z,94362.89
